createdAt,value
2019-04-29T00:01:26.713Z,42.00
2019-04-29T00:03:55.627Z,42.10
2019-04-29T00:06:24.538Z,42.30
2019-04-29T00:08:53.359Z,42.40
2019-04-29T00:11:22.235Z,42.60
2019-04-29T00:13:51.058Z,42.60
2019-04-29T00:16:30.482Z,42.40
2019-04-29T00:19:07.109Z,42.60
2019-04-29T00:21:35.841Z,42.60
2019-04-29T00:24:04.867Z,42.70
2019-04-29T00:26:33.793Z,42.80
2019-04-29T00:29:02.652Z,42.90
2019-04-29T00:31:31.573Z,42.70
2019-04-29T00:34:00.340Z,42.70
2019-04-29T00:36:30.999Z,42.70
2019-04-29T00:39:13.427Z,42.70
2019-04-29T00:41:49.935Z,42.80
2019-04-29T00:44:18.744Z,42.90
2019-04-29T00:46:47.535Z,43.00
2019-04-29T00:49:16.305Z,42.90
2019-04-29T00:51:45.091Z,43.00
2019-04-29T00:54:15.558Z,43.10
2019-04-29T00:56:44.366Z,43.40
2019-04-29T00:59:13.202Z,43.00
2019-04-29T01:01:42.984Z,43.20
2019-04-29T01:04:11.756Z,43.20
2019-04-29T01:06:40.530Z,43.20
2019-04-29T01:09:12.483Z,43.30
2019-04-29T01:11:41.260Z,43.50
2019-04-29T01:14:10.272Z,43.60
2019-04-29T01:16:39.061Z,43.80
2019-04-29T01:19:07.881Z,44.40
2019-04-29T01:21:36.694Z,43.90
2019-04-29T01:24:05.456Z,43.90
2019-04-29T01:26:48.143Z,44.00
2019-04-29T01:29:18.562Z,43.90
2019-04-29T01:31:47.416Z,44.30
2019-04-29T01:34:17.802Z,44.20
2019-04-29T01:36:47.796Z,44.30
2019-04-29T01:39:16.731Z,44.30
2019-04-29T01:41:47.181Z,44.20
2019-04-29T01:44:17.591Z,44.30
2019-04-29T01:46:46.507Z,44.30
2019-04-29T01:49:15.278Z,44.40
2019-04-29T01:51:44.032Z,44.50
2019-04-29T01:54:12.792Z,44.40
2019-04-29T01:56:41.676Z,44.30
2019-04-29T01:59:10.558Z,44.50
2019-04-29T02:01:39.432Z,44.60
2019-04-29T02:04:08.236Z,44.70
2019-04-29T02:06:37.021Z,45.60
2019-04-29T02:09:10.136Z,45.00
2019-04-29T02:11:39.633Z,45.00
2019-04-29T02:14:08.409Z,45.00
2019-04-29T02:16:37.216Z,45.00
2019-04-29T02:19:06.010Z,45.00
2019-04-29T02:21:34.839Z,45.10
2019-04-29T02:24:07.991Z,45.20
2019-04-29T02:26:36.788Z,45.20
2019-04-29T02:29:05.588Z,45.40
2019-04-29T02:31:45.166Z,45.50
2019-04-29T02:34:13.997Z,45.50
2019-04-29T02:36:42.813Z,45.50
2019-04-29T02:39:30.204Z,45.80
2019-04-29T02:42:00.639Z,45.50
2019-04-29T02:44:29.374Z,45.50
2019-04-29T02:46:58.266Z,45.60
2019-04-29T02:49:27.101Z,45.50
2019-04-29T02:51:55.966Z,45.40
2019-04-29T02:54:26.390Z,45.50
2019-04-29T02:56:56.923Z,45.40
2019-04-29T02:59:33.428Z,45.30
2019-04-29T03:02:03.860Z,45.20
2019-04-29T03:04:34.269Z,45.00
2019-04-29T03:07:03.160Z,44.90
2019-04-29T03:09:33.541Z,44.40
2019-04-29T03:12:02.339Z,43.50
2019-04-29T03:14:31.472Z,42.10
2019-04-29T03:17:00.278Z,40.60
2019-04-29T03:19:30.630Z,39.50
2019-04-29T03:22:01.114Z,38.00
2019-04-29T03:24:30.066Z,36.70
2019-04-29T03:26:58.865Z,35.50
2019-04-29T03:29:27.719Z,34.20
2019-04-29T03:31:57.259Z,33.30
2019-04-29T03:34:26.077Z,32.40
2019-04-29T03:36:54.865Z,31.60
2019-04-29T03:39:23.642Z,30.70
2019-04-29T03:41:52.696Z,29.60
2019-04-29T03:44:21.573Z,29.50
2019-04-29T03:46:50.418Z,28.40
2019-04-29T03:49:19.253Z,27.50
2019-04-29T03:51:47.961Z,27.30
2019-04-29T03:54:16.807Z,26.70
2019-04-29T03:56:46.055Z,26.40
2019-04-29T03:59:14.813Z,26.30
2019-04-29T04:01:57.343Z,25.70
2019-04-29T04:04:43.990Z,24.90
2019-04-29T04:07:29.706Z,24.30
2019-04-29T04:09:58.541Z,24.30
2019-04-29T04:12:27.322Z,25.00
2019-04-29T04:14:56.181Z,24.30
2019-04-29T04:17:26.622Z,23.70
2019-04-29T04:19:55.574Z,23.30
2019-04-29T04:22:24.413Z,23.00
2019-04-29T04:24:53.476Z,22.20
2019-04-29T04:27:22.239Z,22.00
2019-04-29T04:29:51.190Z,21.40
2019-04-29T04:32:19.978Z,21.20
2019-04-29T04:34:48.787Z,21.10
2019-04-29T04:37:17.576Z,20.50
2019-04-29T04:39:46.696Z,20.30
2019-04-29T04:42:15.684Z,19.80
2019-04-29T04:44:50.571Z,19.10
2019-04-29T04:47:19.995Z,18.50
2019-04-29T04:49:48.746Z,17.90
2019-04-29T04:52:17.545Z,17.80
2019-04-29T04:54:47.999Z,17.50
2019-04-29T04:57:17.142Z,17.50
2019-04-29T04:59:45.980Z,16.90
2019-04-29T05:02:14.845Z,17.90
2019-04-29T05:04:43.615Z,16.90
2019-04-29T05:07:12.448Z,16.60
2019-04-29T05:09:41.213Z,16.80
2019-04-29T05:12:10.096Z,17.20
2019-04-29T05:14:38.869Z,17.30
2019-04-29T05:17:07.685Z,17.10
2019-04-29T05:19:36.529Z,16.60
2019-04-29T05:22:05.506Z,16.50
2019-04-29T05:24:34.318Z,15.80
2019-04-29T05:27:03.166Z,15.10
2019-04-29T05:29:31.950Z,14.70
2019-04-29T05:32:00.850Z,14.20
2019-04-29T05:34:31.376Z,14.50
2019-04-29T05:37:01.910Z,14.10
2019-04-29T05:39:32.360Z,14.20
2019-04-29T05:42:01.172Z,14.20
2019-04-29T05:44:43.540Z,14.20
2019-04-29T05:47:32.029Z,13.80
2019-04-29T05:50:18.723Z,13.20
2019-04-29T05:52:52.353Z,13.60
2019-04-29T05:55:21.276Z,13.90
2019-04-29T05:57:50.103Z,13.60
2019-04-29T06:00:23.247Z,13.30
2019-04-29T06:02:51.036Z,12.80
2019-04-29T06:05:19.925Z,12.90
2019-04-29T06:07:51.528Z,13.10
2019-04-29T06:10:22.974Z,13.10
2019-04-29T06:12:49.885Z,13.40
2019-04-29T06:15:18.670Z,13.00
2019-04-29T06:17:47.575Z,12.60
2019-04-29T06:20:17.908Z,12.50
2019-04-29T06:22:47.111Z,12.70
2019-04-29T06:25:16.207Z,12.70
2019-04-29T06:27:45.307Z,12.70
2019-04-29T06:30:14.193Z,12.40
2019-04-29T06:32:43.197Z,12.00
2019-04-29T06:35:14.150Z,11.70
2019-04-29T06:37:42.831Z,11.70
2019-04-29T06:40:11.991Z,11.80
2019-04-29T06:42:40.794Z,12.00
2019-04-29T06:45:10.225Z,12.20
2019-04-29T06:47:38.954Z,12.40
2019-04-29T06:50:08.624Z,12.60
2019-04-29T06:52:37.633Z,12.80
2019-04-29T06:55:07.346Z,13.00
2019-04-29T06:57:36.234Z,12.30
2019-04-29T07:00:06.732Z,12.10
2019-04-29T07:02:35.769Z,12.00
2019-04-29T07:05:06.623Z,11.90
2019-04-29T07:07:35.496Z,12.10
2019-04-29T07:10:05.516Z,12.10
2019-04-29T07:12:34.521Z,12.00
2019-04-29T07:15:03.411Z,11.80
2019-04-29T07:17:32.138Z,11.90
2019-04-29T07:20:02.148Z,11.50
2019-04-29T07:22:31.425Z,11.50
2019-04-29T07:25:00.319Z,11.60
2019-04-29T07:27:29.053Z,11.90
2019-04-29T07:30:01.672Z,11.80
2019-04-29T07:32:28.653Z,11.50
2019-04-29T07:34:57.398Z,10.90
2019-04-29T07:37:29.688Z,10.30
2019-04-29T07:39:56.866Z,10.00
2019-04-29T07:42:31.939Z,10.00
2019-04-29T07:45:14.105Z,10.10
2019-04-29T07:47:55.818Z,11.00
2019-04-29T07:50:15.165Z,10.90
2019-04-29T07:52:45.632Z,11.20
2019-04-29T07:55:14.655Z,10.90
2019-04-29T07:57:43.464Z,11.00
2019-04-29T08:00:14.488Z,11.30
2019-04-29T08:02:43.015Z,11.30
2019-04-29T08:05:12.122Z,11.80
2019-04-29T08:07:41.826Z,11.80
2019-04-29T08:10:23.241Z,11.80
2019-04-29T08:12:43.100Z,11.50
2019-04-29T08:15:13.131Z,11.10
2019-04-29T08:17:41.910Z,10.90
2019-04-29T08:20:10.991Z,10.70
2019-04-29T08:22:39.912Z,11.20
2019-04-29T08:25:08.758Z,11.40
2019-04-29T08:27:39.967Z,11.90
2019-04-29T08:30:11.290Z,11.70
2019-04-29T08:32:38.741Z,10.90
2019-04-29T08:35:07.507Z,11.40
2019-04-29T08:37:36.448Z,10.10
2019-04-29T08:40:16.087Z,10.60
2019-04-29T08:42:41.876Z,11.00
2019-04-29T08:45:14.229Z,11.20
2019-04-29T08:47:47.365Z,11.80
2019-04-29T08:50:16.373Z,13.00
2019-04-29T08:52:45.370Z,14.10
2019-04-29T08:55:14.627Z,15.60
2019-04-29T08:57:43.463Z,17.30
2019-04-29T09:00:13.054Z,18.80
2019-04-29T09:02:46.904Z,20.10
2019-04-29T09:05:13.227Z,19.90
2019-04-29T09:07:42.200Z,19.80
2019-04-29T09:10:11.174Z,19.90
2019-04-29T09:12:40.526Z,20.30
2019-04-29T09:15:10.088Z,19.50
2019-04-29T09:17:38.922Z,19.50
2019-04-29T09:20:09.575Z,20.10
2019-04-29T09:22:49.095Z,20.40
2019-04-29T09:25:21.375Z,20.30
2019-04-29T09:27:51.802Z,20.10
2019-04-29T09:30:20.798Z,20.20
2019-04-29T09:32:49.690Z,20.40
2019-04-29T09:35:18.588Z,20.60
2019-04-29T09:37:47.476Z,20.40
2019-04-29T09:40:18.731Z,20.50
2019-04-29T09:42:50.218Z,20.70
2019-04-29T09:45:24.390Z,20.50
2019-04-29T09:47:51.859Z,20.60
2019-04-29T09:50:20.647Z,20.30
2019-04-29T09:52:49.451Z,20.70
2019-04-29T09:55:19.696Z,20.20
2019-04-29T09:57:48.662Z,20.60
2019-04-29T10:00:32.094Z,20.60
2019-04-29T10:03:15.010Z,20.60
2019-04-29T10:05:48.416Z,20.80
2019-04-29T10:08:17.253Z,20.80
2019-04-29T10:10:46.078Z,20.70
2019-04-29T10:13:14.935Z,20.80
2019-04-29T10:15:48.383Z,20.80
2019-04-29T10:18:29.799Z,20.90
2019-04-29T10:21:08.599Z,21.10
2019-04-29T10:23:37.787Z,20.50
2019-04-29T10:26:06.552Z,21.00
2019-04-29T10:28:37.318Z,21.10
2019-04-29T10:31:06.935Z,21.20
2019-04-29T10:33:35.921Z,21.40
2019-04-29T10:36:05.762Z,21.40
2019-04-29T10:38:34.844Z,20.90
2019-04-29T10:41:08.371Z,20.60
2019-04-29T10:43:53.742Z,20.80
2019-04-29T10:46:34.880Z,21.10
2019-04-29T10:49:21.891Z,20.40
2019-04-29T10:51:50.784Z,20.80
2019-04-29T10:54:19.680Z,20.10
2019-04-29T10:56:49.704Z,20.20
2019-04-29T10:59:18.702Z,20.10
2019-04-29T11:02:09.410Z,19.80
2019-04-29T11:04:36.080Z,19.80
2019-04-29T11:07:19.200Z,20.30
2019-04-29T11:09:50.910Z,20.10
2019-04-29T11:12:19.641Z,20.20
2019-04-29T11:14:48.599Z,20.50
2019-04-29T11:17:19.240Z,21.10
2019-04-29T11:19:48.032Z,20.50
2019-04-29T11:22:18.563Z,20.20
2019-04-29T11:25:05.413Z,20.20
2019-04-29T11:27:35.873Z,20.60
2019-04-29T11:30:07.160Z,20.80
2019-04-29T11:32:37.634Z,21.00
2019-04-29T11:35:11.074Z,20.60
2019-04-29T11:37:39.875Z,20.60
2019-04-29T11:40:09.277Z,19.70
2019-04-29T11:42:41.626Z,19.70
2019-04-29T11:45:09.715Z,19.90
2019-04-29T11:47:38.720Z,20.00
2019-04-29T11:50:26.992Z,20.10
2019-04-29T11:52:56.127Z,19.80
2019-04-29T11:55:24.885Z,19.90
2019-04-29T11:57:55.386Z,19.50
2019-04-29T12:00:26.014Z,18.90
2019-04-29T12:02:56.480Z,19.10
2019-04-29T12:05:29.948Z,19.20
2019-04-29T12:07:58.761Z,19.20
2019-04-29T12:10:27.841Z,19.20
2019-04-29T12:12:58.386Z,19.30
2019-04-29T12:15:28.948Z,19.70
2019-04-29T12:18:11.406Z,19.80
2019-04-29T12:20:44.543Z,20.00
2019-04-29T12:23:15.705Z,20.30
2019-04-29T12:25:44.006Z,21.60
2019-04-29T12:28:19.209Z,22.90
2019-04-29T12:30:44.978Z,23.00
2019-04-29T12:33:15.527Z,23.30
2019-04-29T12:35:51.970Z,23.50
2019-04-29T12:38:40.099Z,23.70
2019-04-29T12:41:29.912Z,24.20
2019-04-29T12:44:03.597Z,24.40
2019-04-29T12:46:37.037Z,24.40
2019-04-29T12:49:08.464Z,24.60
2019-04-29T12:51:36.631Z,24.00
2019-04-29T12:54:07.276Z,24.80
2019-04-29T12:56:37.580Z,24.80
2019-04-29T12:59:06.569Z,24.70
2019-04-29T13:01:51.417Z,24.70
2019-04-29T13:04:28.142Z,24.70
2019-04-29T13:07:07.920Z,24.70
2019-04-29T13:09:38.599Z,25.10
2019-04-29T13:12:18.883Z,25.60
2019-04-29T13:14:39.764Z,25.90
2019-04-29T13:17:14.796Z,26.10
2019-04-29T13:19:50.264Z,26.40
2019-04-29T13:22:17.108Z,26.60
2019-04-29T13:24:46.191Z,26.70
2019-04-29T13:27:16.215Z,26.50
2019-04-29T13:29:45.478Z,27.10
2019-04-29T13:32:14.356Z,27.30
2019-04-29T13:34:44.808Z,27.20
2019-04-29T13:37:18.781Z,27.60
2019-04-29T13:39:44.133Z,28.10
2019-04-29T13:42:15.584Z,28.00
2019-04-29T13:45:04.741Z,28.60
2019-04-29T13:47:28.785Z,28.60
2019-04-29T13:50:17.827Z,28.60
2019-04-29T13:52:33.121Z,28.30
2019-04-29T13:55:17.273Z,28.20
2019-04-29T13:57:32.385Z,28.60
2019-04-29T14:00:12.066Z,29.10
2019-04-29T14:02:58.878Z,29.30
2019-04-29T14:05:20.796Z,28.70
2019-04-29T14:07:52.699Z,28.50
2019-04-29T14:10:20.330Z,28.20
2019-04-29T14:15:20.473Z,28.30
2019-04-29T14:17:49.431Z,28.50
2019-04-29T14:18:53.617Z,28.20
2019-04-29T14:20:19.223Z,28.70
2019-04-29T14:22:49.716Z,28.70
2019-04-29T14:25:18.609Z,28.30
2019-04-29T14:27:47.339Z,28.70
2019-04-29T14:30:20.916Z,29.00
2019-04-29T14:32:51.704Z,29.40
2019-04-29T14:35:22.114Z,29.70
2019-04-29T14:37:55.470Z,29.40
2019-04-29T14:40:21.337Z,28.90
2019-04-29T14:43:02.902Z,29.60
2019-04-29T14:45:44.975Z,29.50
2019-04-29T14:48:24.553Z,29.50
2019-04-29T14:50:54.058Z,29.10
2019-04-29T14:53:24.318Z,29.10
2019-04-29T14:55:53.959Z,29.60
2019-04-29T14:58:22.960Z,29.20
2019-04-29T15:00:53.453Z,29.10
2019-04-29T15:03:24.659Z,28.90
2019-04-29T15:05:53.574Z,29.20
2019-04-29T15:08:22.682Z,29.20
2019-04-29T15:10:53.520Z,29.40
2019-04-29T15:13:24.163Z,29.80
2019-04-29T15:16:09.501Z,29.80
2019-04-29T15:18:50.657Z,30.00
2019-04-29T15:21:32.424Z,29.80
2019-04-29T15:23:56.934Z,30.00
2019-04-29T15:26:25.782Z,30.30
2019-04-29T15:28:54.722Z,30.20
2019-04-29T15:31:24.531Z,30.30
2019-04-29T15:33:53.725Z,30.30
2019-04-29T15:36:22.630Z,30.00
2019-04-29T15:39:07.646Z,30.20
2019-04-29T15:41:30.074Z,30.30
2019-04-29T15:44:06.038Z,30.10
2019-04-29T15:46:23.058Z,30.50
2019-04-29T15:48:51.817Z,30.70
2019-04-29T15:51:20.816Z,31.10
2019-04-29T15:53:49.814Z,30.80
2019-04-29T15:56:28.391Z,31.20
2019-04-29T15:58:49.373Z,31.70
2019-04-29T16:01:27.002Z,32.20
2019-04-29T16:03:50.189Z,32.60
2019-04-29T16:06:21.931Z,33.30
2019-04-29T16:08:58.936Z,33.70
2019-04-29T16:11:39.499Z,34.40
2019-04-29T16:14:10.223Z,35.00
2019-04-29T16:16:39.442Z,35.90
2019-04-29T16:19:10.190Z,36.60
2019-04-29T16:21:39.772Z,37.20
2019-04-29T16:24:25.999Z,37.90
2019-04-29T16:26:39.934Z,38.00
2019-04-29T16:29:13.003Z,39.30
2019-04-29T16:31:39.386Z,39.90
2019-04-29T16:34:08.354Z,40.20
2019-04-29T16:36:37.357Z,40.60
2019-04-29T16:39:07.223Z,41.10
2019-04-29T16:41:37.698Z,41.50
2019-04-29T16:44:33.630Z,41.80
2019-04-29T16:46:40.197Z,41.80
2019-04-29T16:49:09.195Z,42.10
2019-04-29T16:51:38.084Z,42.30
2019-04-29T16:54:06.967Z,42.30
2019-04-29T16:56:35.879Z,42.80
2019-04-29T16:59:09.296Z,43.20
2019-04-29T17:01:35.508Z,43.60
2019-04-29T17:04:05.545Z,44.00
2019-04-29T17:06:36.112Z,44.40
2019-04-29T17:09:10.700Z,44.60
2019-04-29T17:11:41.195Z,45.00
2019-04-29T17:14:12.519Z,45.40
2019-04-29T17:16:40.768Z,46.00
2019-04-29T17:19:09.589Z,46.60
2019-04-29T17:21:38.402Z,46.70
2019-04-29T17:24:07.333Z,47.30
2019-04-29T17:26:40.322Z,48.00
2019-04-29T17:29:37.920Z,48.20
2019-04-29T17:32:02.788Z,48.70
2019-04-29T17:34:58.067Z,49.00
2019-04-29T17:37:10.218Z,49.30
2019-04-29T17:39:39.638Z,49.80
2019-04-29T17:42:08.515Z,50.20
2019-04-29T17:44:46.829Z,50.50
2019-04-29T17:47:33.706Z,50.90
2019-04-29T17:50:29.977Z,51.50
2019-04-29T17:52:54.043Z,51.90
2019-04-29T17:55:25.045Z,52.20
2019-04-29T17:57:55.584Z,52.60
2019-04-29T18:00:41.363Z,53.20
2019-04-29T18:03:21.290Z,53.60
2019-04-29T18:05:55.715Z,54.10
2019-04-29T18:08:32.779Z,54.50
2019-04-29T18:11:04.686Z,54.80
2019-04-29T18:13:35.223Z,55.10
2019-04-29T18:16:17.074Z,55.40
2019-04-29T18:18:46.658Z,55.80
2019-04-29T18:21:27.520Z,56.00
2019-04-29T18:24:00.758Z,56.40
2019-04-29T18:26:52.903Z,56.90
2019-04-29T18:29:22.097Z,57.30
2019-04-29T18:31:50.987Z,57.70
2019-04-29T18:34:19.983Z,57.90
2019-04-29T18:36:48.822Z,58.30
2019-04-29T18:39:20.053Z,58.70
2019-04-29T18:41:49.943Z,58.80
2019-04-29T18:44:19.732Z,58.80
2019-04-29T18:46:53.430Z,59.00
2019-04-29T18:49:19.388Z,59.30
2019-04-29T18:51:48.283Z,59.30
2019-04-29T18:54:17.184Z,59.40
2019-04-29T18:56:46.047Z,59.70
2019-04-29T18:59:18.228Z,59.70
2019-04-29T19:01:45.349Z,59.80
2019-04-29T19:04:19.223Z,60.00
2019-04-29T19:06:51.239Z,60.00
2019-04-29T19:09:20.820Z,60.10
2019-04-29T19:11:49.253Z,60.30
2019-04-29T19:14:20.654Z,59.80
2019-04-29T19:16:48.497Z,59.30
2019-04-29T19:19:18.800Z,58.40
2019-04-29T19:21:47.907Z,58.20
2019-04-29T19:24:16.802Z,57.80
2019-04-29T19:26:45.632Z,56.70
2019-04-29T19:29:15.619Z,56.50
2019-04-29T19:31:49.409Z,55.90
2019-04-29T19:34:18.650Z,55.70
2019-04-29T19:36:45.657Z,55.40
2019-04-29T19:39:16.831Z,54.50
2019-04-29T19:41:49.333Z,54.40
2019-04-29T19:44:15.570Z,53.30
2019-04-29T19:46:45.391Z,53.10
2019-04-29T19:49:15.808Z,52.20
2019-04-29T19:51:47.306Z,52.20
2019-04-29T19:54:17.009Z,51.70
2019-04-29T19:56:45.635Z,50.60
2019-04-29T19:59:17.106Z,50.00
2019-04-29T20:01:48.946Z,49.40
2019-04-29T20:04:22.522Z,49.20
2019-04-29T20:06:51.045Z,48.90
2019-04-29T20:09:22.967Z,48.40
2019-04-29T20:11:52.473Z,48.00
2019-04-29T20:14:27.425Z,47.40
2019-04-29T20:16:59.651Z,47.30
2019-04-29T20:19:31.856Z,46.60
2019-04-29T20:22:05.532Z,46.40
2019-04-29T20:24:31.518Z,46.00
2019-04-29T20:27:00.536Z,45.60
2019-04-29T20:29:33.794Z,45.20
2019-04-29T20:31:59.962Z,44.50
2019-04-29T20:34:28.975Z,43.70
2019-04-29T20:36:58.164Z,43.30
2019-04-29T20:39:27.188Z,42.70
2019-04-29T20:41:56.441Z,42.50
2019-04-29T20:44:25.486Z,41.70
2019-04-29T20:47:14.124Z,41.60
2019-04-29T20:49:26.286Z,40.80
2019-04-29T20:51:57.063Z,40.40
2019-04-29T20:54:27.887Z,40.20
2019-04-29T20:57:04.804Z,40.10
2019-04-29T20:59:27.544Z,39.60
2019-04-29T21:02:12.069Z,39.60
2019-04-29T21:04:38.595Z,39.30
2019-04-29T21:07:02.715Z,39.00
2019-04-29T21:09:31.782Z,38.90
2019-04-29T21:12:20.801Z,38.70
2019-04-29T21:14:51.377Z,38.50
2019-04-29T21:17:28.589Z,38.60
2019-04-29T21:19:50.664Z,38.30
2019-04-29T21:22:23.422Z,38.10
2019-04-29T21:24:53.844Z,38.20
2019-04-29T21:27:22.678Z,38.00
2019-04-29T21:29:54.063Z,38.10
2019-04-29T21:32:21.588Z,38.00
2019-04-29T21:34:52.085Z,38.10
2019-04-29T21:37:35.789Z,37.90
2019-04-29T21:40:14.712Z,37.80
2019-04-29T21:42:42.897Z,37.90
2019-04-29T21:45:13.595Z,37.60
2019-04-29T21:47:45.641Z,37.80
2019-04-29T21:50:15.224Z,37.90
2019-04-29T21:52:44.752Z,37.80
2019-04-29T21:55:16.166Z,38.50
2019-04-29T21:57:45.106Z,37.80
2019-04-29T22:00:19.820Z,37.90
2019-04-29T22:02:46.680Z,38.00
2019-04-29T22:05:18.369Z,38.00
2019-04-29T22:07:47.494Z,38.00
2019-04-29T22:10:19.807Z,38.20
2019-04-29T22:12:50.855Z,38.00
2019-04-29T22:15:24.067Z,38.10
2019-04-29T22:17:56.235Z,38.10
2019-04-29T22:20:18.736Z,38.20
2019-04-29T22:22:47.833Z,38.10
2019-04-29T22:25:16.847Z,38.20
2019-04-29T22:27:45.674Z,38.40
2019-04-29T22:30:18.494Z,38.60
2019-04-29T22:32:47.321Z,38.60
2019-04-29T22:35:17.504Z,38.70
2019-04-29T22:37:46.391Z,38.70
2019-04-29T22:40:17.332Z,38.90
2019-04-29T22:42:53.242Z,39.10
2019-04-29T22:45:22.991Z,39.30
2019-04-29T22:47:54.402Z,39.60
2019-04-29T22:50:22.348Z,39.90
2019-04-29T22:52:51.195Z,40.10
2019-04-29T22:55:19.993Z,40.30
2019-04-29T22:57:48.750Z,40.50
2019-04-29T23:00:19.200Z,40.50
2019-04-29T23:02:47.979Z,40.70
2019-04-29T23:05:16.711Z,40.90
2019-04-29T23:07:45.624Z,41.60
2019-04-29T23:10:18.059Z,41.20
2019-04-29T23:12:45.159Z,41.30
2019-04-29T23:15:18.936Z,41.60
2019-04-29T23:17:47.457Z,41.50
2019-04-29T23:20:29.000Z,41.50
2019-04-29T23:23:02.159Z,41.70
2019-04-29T23:25:32.607Z,41.90
2019-04-29T23:28:01.418Z,42.10
2019-04-29T23:30:30.245Z,42.10
2019-04-29T23:32:59.146Z,42.20
2019-04-29T23:35:27.867Z,42.30
2019-04-29T23:38:03.635Z,42.40
2019-04-29T23:40:27.166Z,42.50
2019-04-29T23:42:57.449Z,42.60
2019-04-29T23:45:26.695Z,42.70
2019-04-29T23:47:55.602Z,42.90
2019-04-29T23:50:25.845Z,43.00
2019-04-29T23:52:55.670Z,43.10
2019-04-29T23:55:28.038Z,43.40
2019-04-29T23:58:08.772Z,43.60
